createdAt,value
2022-10-04T00:02:34.357Z,2.20
2022-10-04T00:05:27.947Z,1.80
2022-10-04T00:08:26.860Z,2.00
2022-10-04T00:11:30.532Z,2.20
2022-10-04T00:14:39.567Z,2.90
2022-10-04T00:17:35.821Z,2.40
2022-10-04T00:20:50.893Z,2.30
2022-10-04T00:23:38.765Z,2.80
2022-10-04T00:26:29.751Z,2.30
2022-10-04T00:29:44.009Z,2.20
2022-10-04T00:32:41.646Z,2.30
2022-10-04T00:35:30.033Z,2.00
2022-10-04T00:38:27.966Z,2.30
2022-10-04T00:41:16.455Z,2.10
2022-10-04T00:44:13.322Z,2.20
2022-10-04T00:47:13.300Z,2.20
2022-10-04T00:50:28.994Z,1.90
2022-10-04T00:53:27.216Z,2.30
2022-10-04T00:56:56.676Z,2.10
2022-10-04T00:59:52.021Z,2.20
2022-10-04T01:02:55.381Z,2.50
2022-10-04T01:05:53.974Z,2.20
2022-10-04T01:08:51.802Z,2.40
2022-10-04T01:11:49.100Z,2.00
2022-10-04T01:14:50.456Z,2.10
2022-10-04T01:17:38.509Z,2.50
2022-10-04T01:20:37.899Z,2.40
2022-10-04T01:23:42.119Z,2.60
2022-10-04T01:26:30.501Z,2.10
2022-10-04T01:29:31.601Z,2.40
2022-10-04T01:32:19.542Z,2.10
2022-10-04T01:35:11.904Z,2.30
2022-10-04T01:37:59.816Z,2.40
2022-10-04T01:40:55.841Z,2.30
2022-10-04T01:43:49.381Z,2.10
2022-10-04T01:46:40.519Z,2.20
2022-10-04T01:49:33.451Z,2.50
2022-10-04T01:52:42.619Z,2.90
2022-10-04T01:55:36.208Z,2.60
2022-10-04T01:58:34.174Z,2.50
2022-10-04T02:01:33.001Z,2.40
2022-10-04T02:04:28.206Z,2.60
2022-10-04T02:07:16.694Z,2.20
2022-10-04T02:10:10.792Z,2.50
2022-10-04T02:12:58.545Z,2.40
2022-10-04T02:15:48.135Z,2.60
2022-10-04T02:18:39.362Z,2.60
2022-10-04T02:21:27.375Z,2.60
2022-10-04T02:24:16.855Z,3.30
2022-10-04T02:27:06.417Z,2.80
2022-10-04T02:30:01.045Z,2.70
2022-10-04T02:32:59.889Z,2.70
2022-10-04T02:35:48.682Z,2.90
2022-10-04T02:38:44.602Z,2.80
2022-10-04T02:41:52.586Z,2.70
2022-10-04T02:44:49.094Z,2.60
2022-10-04T02:48:13.776Z,2.70
2022-10-04T02:51:17.830Z,3.40
2022-10-04T02:54:27.641Z,2.80
2022-10-04T02:57:22.574Z,3.00
2022-10-04T03:00:21.812Z,3.20
2022-10-04T03:03:20.434Z,3.40
2022-10-04T03:06:13.224Z,2.80
2022-10-04T03:09:05.859Z,2.60
2022-10-04T03:11:54.086Z,2.70
2022-10-04T03:14:43.308Z,3.30
2022-10-04T03:17:31.192Z,2.80
2022-10-04T03:20:21.509Z,2.80
2022-10-04T03:23:12.290Z,2.80
2022-10-04T03:26:31.111Z,3.10
2022-10-04T03:29:22.100Z,2.40
2022-10-04T03:32:17.338Z,2.50
2022-10-04T03:35:16.017Z,2.70
2022-10-04T03:38:10.035Z,2.10
2022-10-04T03:41:01.477Z,2.50
2022-10-04T03:43:51.576Z,2.70
2022-10-04T03:46:39.854Z,2.30
2022-10-04T03:49:36.039Z,2.70
2022-10-04T03:52:30.848Z,2.40
2022-10-04T03:55:20.201Z,2.40
2022-10-04T03:58:16.409Z,2.30
2022-10-04T04:01:32.516Z,2.20
2022-10-04T04:04:31.338Z,2.70
2022-10-04T04:07:39.302Z,2.20
2022-10-04T04:10:31.360Z,2.90
2022-10-04T04:13:56.154Z,2.90
2022-10-04T04:16:45.322Z,2.30
2022-10-04T04:19:34.964Z,2.40
2022-10-04T04:22:24.170Z,2.20
2022-10-04T04:25:17.432Z,2.40
2022-10-04T04:28:18.784Z,2.40
2022-10-04T04:31:17.098Z,2.10
2022-10-04T04:34:25.659Z,2.40
2022-10-04T04:37:13.391Z,2.20
2022-10-04T04:40:20.497Z,2.30
2022-10-04T04:43:17.980Z,2.40
2022-10-04T04:46:26.475Z,2.10
2022-10-04T04:49:18.931Z,2.20
2022-10-04T04:52:17.069Z,2.50
2022-10-04T04:55:14.929Z,2.40
2022-10-04T04:58:05.389Z,2.30
2022-10-04T05:01:00.979Z,2.20
2022-10-04T05:04:07.129Z,2.50
2022-10-04T05:07:03.840Z,2.70
2022-10-04T05:09:53.012Z,2.40
2022-10-04T05:12:46.935Z,2.60
2022-10-04T05:15:37.484Z,2.30
2022-10-04T05:18:33.943Z,2.10
2022-10-04T05:21:31.536Z,2.40
2022-10-04T05:24:47.116Z,2.50
2022-10-04T05:27:45.169Z,2.60
2022-10-04T05:30:43.883Z,3.40
2022-10-04T05:33:40.668Z,2.70
2022-10-04T05:37:06.754Z,3.40
2022-10-04T05:40:13.345Z,3.50
2022-10-04T05:43:35.037Z,4.30
2022-10-04T05:46:34.955Z,3.00
2022-10-04T05:49:25.704Z,2.60
2022-10-04T05:52:24.991Z,2.70
2022-10-04T05:55:13.272Z,2.70
2022-10-04T05:58:22.191Z,2.80
2022-10-04T06:01:24.444Z,3.20
2022-10-04T06:04:42.929Z,3.70
2022-10-04T06:07:59.880Z,3.20
2022-10-04T06:10:57.626Z,2.20
2022-10-04T06:14:01.802Z,2.40
2022-10-04T06:17:07.470Z,2.70
2022-10-04T06:20:22.544Z,2.40
2022-10-04T06:23:18.769Z,2.40
2022-10-04T06:26:14.289Z,2.40
2022-10-04T06:29:11.250Z,2.30
2022-10-04T06:32:20.638Z,2.30
2022-10-04T06:35:11.345Z,2.30
2022-10-04T06:38:47.336Z,2.70
2022-10-04T06:42:20.386Z,2.30
2022-10-04T06:45:40.847Z,2.20
2022-10-04T06:48:47.822Z,2.00
2022-10-04T06:52:17.506Z,2.30
2022-10-04T06:55:36.768Z,2.50
2022-10-04T06:59:11.675Z,2.00
2022-10-04T07:02:14.373Z,2.40
2022-10-04T07:05:30.876Z,2.30
2022-10-04T07:08:34.369Z,2.10
2022-10-04T07:11:43.569Z,2.10
2022-10-04T07:14:38.845Z,5.20
2022-10-04T07:17:58.611Z,2.70
2022-10-04T07:20:49.133Z,2.30
2022-10-04T07:23:56.446Z,2.70
2022-10-04T07:26:53.238Z,3.60
2022-10-04T07:29:46.703Z,3.20
2022-10-04T07:32:45.491Z,3.20
2022-10-04T07:35:46.844Z,2.80
2022-10-04T07:38:44.637Z,2.30
2022-10-04T07:41:50.091Z,2.10
2022-10-04T07:44:43.324Z,2.10
2022-10-04T07:47:32.640Z,2.20
2022-10-04T07:50:39.463Z,2.10
2022-10-04T07:53:53.722Z,2.00
2022-10-04T07:56:54.667Z,1.90
2022-10-04T08:00:13.053Z,1.80
2022-10-04T08:03:33.553Z,1.70
2022-10-04T08:06:56.575Z,1.80
2022-10-04T08:10:24.195Z,1.80
2022-10-04T08:13:46.252Z,1.60
2022-10-04T08:17:02.624Z,1.40
2022-10-04T08:20:31.189Z,1.40
2022-10-04T08:24:05.067Z,1.70
2022-10-04T08:26:58.823Z,1.50
2022-10-04T08:30:04.839Z,1.10
2022-10-04T08:33:23.542Z,2.00
2022-10-04T08:36:32.328Z,1.60
2022-10-04T08:39:39.486Z,2.60
2022-10-04T08:42:54.766Z,1.30
2022-10-04T08:45:58.324Z,1.30
2022-10-04T08:48:52.296Z,1.40
2022-10-04T08:52:06.516Z,1.20
2022-10-04T08:55:39.030Z,1.20
2022-10-04T08:58:51.964Z,1.50
2022-10-04T09:02:29.287Z,1.30
2022-10-04T09:05:58.024Z,1.10
2022-10-04T09:09:07.400Z,1.10
2022-10-04T09:12:33.814Z,1.00
2022-10-04T09:15:56.910Z,0.90
2022-10-04T09:19:45.258Z,1.20
2022-10-04T09:23:06.506Z,1.10
2022-10-04T09:26:14.666Z,0.90
2022-10-04T09:29:20.986Z,1.00
2022-10-04T09:32:41.094Z,1.20
2022-10-04T09:36:29.222Z,2.00
2022-10-04T09:39:30.429Z,1.40
2022-10-04T09:42:44.003Z,1.00
2022-10-04T09:46:07.896Z,0.90
2022-10-04T09:49:01.677Z,0.70
2022-10-04T09:52:09.122Z,1.30
2022-10-04T09:55:16.977Z,1.30
2022-10-04T09:58:53.493Z,1.80
2022-10-04T10:02:29.261Z,1.60
2022-10-04T10:05:41.909Z,1.70
2022-10-04T10:08:57.056Z,1.20
2022-10-04T10:13:00.106Z,1.00
2022-10-04T10:16:20.370Z,1.10
2022-10-04T10:19:35.855Z,0.90
2022-10-04T10:22:42.631Z,0.80
2022-10-04T10:25:49.463Z,0.80
2022-10-04T10:29:08.589Z,0.90
2022-10-04T10:32:22.568Z,1.40
2022-10-04T10:35:56.922Z,1.10
2022-10-04T10:39:26.625Z,1.00
2022-10-04T10:42:58.737Z,0.80
2022-10-04T10:46:27.387Z,0.80
2022-10-04T10:49:46.296Z,0.90
2022-10-04T10:53:32.602Z,1.00
2022-10-04T10:56:47.212Z,1.10
2022-10-04T10:59:38.095Z,0.80
2022-10-04T11:02:53.710Z,0.80
2022-10-04T11:06:08.017Z,0.80
2022-10-04T11:09:34.254Z,0.90
2022-10-04T11:13:03.610Z,1.20
2022-10-04T11:16:21.516Z,1.10
2022-10-04T11:19:33.414Z,1.10
2022-10-04T11:23:02.205Z,0.60
2022-10-04T11:26:24.042Z,0.70
2022-10-04T11:29:31.113Z,0.80
2022-10-04T11:32:53.409Z,0.90
2022-10-04T11:36:08.322Z,0.80
2022-10-04T11:39:17.800Z,0.60
2022-10-04T11:42:37.330Z,0.70
2022-10-04T11:45:38.481Z,0.90
2022-10-04T11:48:37.990Z,0.80
2022-10-04T11:52:25.465Z,1.00
2022-10-04T11:55:25.061Z,1.00
2022-10-04T11:58:24.740Z,0.80
2022-10-04T12:01:30.543Z,0.70
2022-10-04T12:05:33.543Z,1.00
2022-10-04T12:08:54.994Z,0.70
2022-10-04T12:12:08.039Z,0.70
2022-10-04T12:15:30.434Z,0.90
2022-10-04T12:18:24.004Z,0.80
2022-10-04T12:21:50.570Z,0.70
2022-10-04T12:24:58.949Z,0.80
2022-10-04T12:28:11.692Z,0.90
2022-10-04T12:31:20.436Z,0.80
2022-10-04T12:34:45.398Z,1.10
2022-10-04T12:37:50.507Z,1.00
2022-10-04T12:41:16.943Z,1.10
2022-10-04T12:44:47.449Z,1.10
2022-10-04T12:48:27.700Z,1.20
2022-10-04T12:51:30.617Z,1.20
2022-10-04T12:54:52.933Z,1.00
2022-10-04T12:58:05.989Z,1.00
2022-10-04T13:01:05.275Z,1.10
2022-10-04T13:04:24.742Z,0.90
2022-10-04T13:07:31.132Z,1.10
2022-10-04T13:10:38.735Z,1.10
2022-10-04T13:14:12.369Z,0.80
2022-10-04T13:17:36.150Z,1.20
2022-10-04T13:20:38.159Z,1.10
2022-10-04T13:23:58.316Z,1.10
2022-10-04T13:26:58.219Z,1.10
2022-10-04T13:30:23.621Z,0.90
2022-10-04T13:33:45.587Z,1.00
2022-10-04T13:37:07.524Z,1.00
2022-10-04T13:40:29.638Z,1.10
2022-10-04T13:43:23.365Z,1.00
2022-10-04T13:46:39.357Z,1.20
2022-10-04T13:50:10.709Z,1.00
2022-10-04T13:54:02.290Z,1.10
2022-10-04T13:57:25.647Z,1.10
2022-10-04T14:00:37.142Z,1.00
2022-10-04T14:03:33.448Z,1.00
2022-10-04T14:06:53.133Z,0.90
2022-10-04T14:10:18.262Z,1.20
2022-10-04T14:13:45.837Z,1.30
2022-10-04T14:16:58.497Z,1.30
2022-10-04T14:20:20.440Z,1.30
2022-10-04T14:23:47.005Z,1.20
2022-10-04T14:27:05.457Z,1.20
2022-10-04T14:30:24.963Z,1.00
2022-10-04T14:33:37.840Z,1.30
2022-10-04T14:36:31.518Z,1.10
2022-10-04T14:40:11.195Z,1.30
2022-10-04T14:43:24.165Z,1.20
2022-10-04T14:46:39.291Z,1.20
2022-10-04T14:50:00.193Z,1.50
2022-10-04T14:53:23.326Z,1.30
2022-10-04T14:56:24.306Z,1.50
2022-10-04T14:59:17.076Z,1.50
2022-10-04T15:02:07.826Z,1.30
2022-10-04T15:05:13.694Z,1.50
2022-10-04T15:08:25.135Z,1.40
2022-10-04T15:11:57.488Z,1.40
2022-10-04T15:15:16.879Z,1.30
2022-10-04T15:18:47.086Z,1.30
2022-10-04T15:21:44.042Z,1.20
2022-10-04T15:24:52.970Z,1.10
2022-10-04T15:27:52.355Z,1.40
2022-10-04T15:31:10.408Z,1.70
2022-10-04T15:34:30.084Z,1.70
2022-10-04T15:37:48.523Z,1.60
2022-10-04T15:41:14.243Z,1.70
2022-10-04T15:44:11.986Z,1.80
2022-10-04T15:47:46.372Z,1.50
2022-10-04T15:50:40.510Z,2.00
2022-10-04T15:53:47.652Z,2.00
2022-10-04T15:56:41.646Z,2.10
2022-10-04T15:59:36.394Z,2.10
2022-10-04T16:02:55.733Z,2.40
2022-10-04T16:06:05.757Z,2.90
2022-10-04T16:09:15.064Z,3.10
2022-10-04T16:12:37.779Z,3.90
2022-10-04T16:15:41.000Z,3.50
2022-10-04T16:19:00.171Z,2.70
2022-10-04T16:21:48.345Z,2.60
2022-10-04T16:24:45.891Z,3.10
2022-10-04T16:27:51.915Z,3.00
2022-10-04T16:31:26.813Z,3.30
2022-10-04T16:34:42.556Z,4.20
2022-10-04T16:37:42.801Z,4.00
2022-10-04T16:40:35.747Z,4.10
2022-10-04T16:43:28.557Z,4.10
2022-10-04T16:46:30.627Z,5.10
2022-10-04T16:49:41.987Z,4.30
2022-10-04T16:53:14.032Z,3.90
2022-10-04T16:56:25.461Z,3.30
2022-10-04T16:59:13.777Z,3.30
2022-10-04T17:02:54.931Z,3.50
2022-10-04T17:06:01.570Z,3.30
2022-10-04T17:09:48.276Z,4.00
2022-10-04T17:13:13.967Z,3.20
2022-10-04T17:16:10.555Z,4.10
2022-10-04T17:19:21.895Z,4.30
2022-10-04T17:22:38.696Z,4.50
2022-10-04T17:26:01.069Z,4.70
2022-10-04T17:29:08.260Z,4.30
2022-10-04T17:33:01.176Z,4.00
2022-10-04T17:36:11.475Z,3.60
2022-10-04T17:39:28.449Z,3.60
2022-10-04T17:42:34.717Z,4.10
2022-10-04T17:45:53.293Z,3.20
2022-10-04T17:49:20.259Z,3.80
2022-10-04T17:52:38.222Z,3.60
2022-10-04T17:55:53.058Z,3.80
2022-10-04T17:58:53.944Z,4.40
2022-10-04T18:01:47.612Z,4.10
2022-10-04T18:04:45.748Z,3.70
2022-10-04T18:07:44.190Z,4.80
2022-10-04T18:10:43.782Z,3.20
2022-10-04T18:13:50.419Z,3.40
2022-10-04T18:17:09.333Z,4.00
2022-10-04T18:20:12.702Z,4.00
2022-10-04T18:23:16.832Z,3.30
2022-10-04T18:26:22.457Z,4.20
2022-10-04T18:29:14.335Z,3.40
2022-10-04T18:32:33.240Z,3.60
2022-10-04T18:35:33.852Z,3.50
2022-10-04T18:38:43.500Z,5.10
2022-10-04T18:42:00.929Z,5.50
2022-10-04T18:45:14.380Z,4.20
2022-10-04T18:48:54.011Z,4.80
2022-10-04T18:52:21.429Z,4.10
2022-10-04T18:55:38.234Z,4.60
2022-10-04T18:59:34.649Z,4.30
2022-10-04T19:02:38.798Z,5.20
2022-10-04T19:05:54.958Z,4.50
2022-10-04T19:09:04.232Z,4.20
2022-10-04T19:12:15.341Z,3.40
2022-10-04T19:15:06.152Z,3.40
2022-10-04T19:18:37.468Z,3.70
2022-10-04T19:21:42.090Z,3.90
2022-10-04T19:25:14.862Z,3.50
2022-10-04T19:28:30.352Z,3.20
2022-10-04T19:31:30.747Z,3.50
2022-10-04T19:35:02.047Z,4.20
2022-10-04T19:38:29.879Z,2.70
2022-10-04T19:42:15.663Z,3.70
2022-10-04T19:45:26.419Z,3.30
2022-10-04T19:48:46.816Z,3.10
2022-10-04T19:51:51.330Z,3.20
2022-10-04T19:54:45.472Z,3.50
2022-10-04T20:02:33.419Z,2.90
2022-10-04T20:05:49.865Z,2.80
2022-10-04T20:09:01.462Z,3.20
2022-10-04T20:11:52.779Z,3.00
2022-10-04T20:14:43.915Z,3.00
2022-10-04T20:17:33.379Z,3.30
2022-10-04T20:20:57.300Z,3.10
2022-10-04T20:23:48.018Z,2.30
2022-10-04T20:26:54.174Z,3.20
2022-10-04T20:29:42.686Z,2.90
2022-10-04T20:32:33.321Z,3.10
2022-10-04T20:36:06.431Z,3.20
2022-10-04T20:39:01.954Z,2.80
2022-10-04T20:42:19.933Z,2.90
2022-10-04T20:45:10.998Z,3.60
2022-10-04T20:47:59.360Z,3.40
2022-10-04T20:50:49.964Z,3.00
2022-10-04T20:53:46.859Z,3.60
2022-10-04T20:56:34.700Z,3.50
2022-10-04T20:59:24.191Z,4.30
2022-10-04T21:02:17.821Z,2.80
2022-10-04T21:05:25.158Z,2.80
2022-10-04T21:08:24.392Z,3.50
2022-10-04T21:11:21.312Z,3.10
2022-10-04T21:14:27.898Z,3.50
2022-10-04T21:17:30.681Z,3.60
2022-10-04T21:20:49.027Z,3.00
2022-10-04T21:23:37.456Z,2.80
2022-10-04T21:26:26.376Z,3.00
2022-10-04T21:29:14.322Z,2.80
2022-10-04T21:32:02.165Z,3.00
2022-10-04T21:34:54.635Z,2.20
2022-10-04T21:37:45.214Z,2.50
2022-10-04T21:40:33.305Z,3.10
2022-10-04T21:43:22.205Z,2.80
2022-10-04T21:46:09.829Z,2.80
2022-10-04T21:48:57.902Z,3.00
2022-10-04T21:51:45.940Z,2.60
2022-10-04T21:54:34.461Z,2.50
2022-10-04T21:57:24.240Z,2.80
2022-10-04T22:00:12.961Z,2.60
2022-10-04T22:03:00.829Z,2.50
2022-10-04T22:05:48.762Z,2.40
2022-10-04T22:08:36.513Z,2.80
2022-10-04T22:11:24.611Z,2.10
2022-10-04T22:14:12.421Z,2.50
2022-10-04T22:17:00.374Z,2.00
2022-10-04T22:19:50.096Z,2.60
2022-10-04T22:22:39.966Z,2.80
2022-10-04T22:25:34.717Z,2.60
2022-10-04T22:28:27.259Z,3.90
2022-10-04T22:31:19.803Z,3.00
2022-10-04T22:34:19.390Z,2.90
2022-10-04T22:37:12.028Z,2.80
2022-10-04T22:40:00.010Z,2.30
2022-10-04T22:42:53.513Z,2.30
2022-10-04T22:45:43.494Z,2.40
2022-10-04T22:48:32.400Z,2.70
2022-10-04T22:51:20.474Z,2.40
2022-10-04T22:54:15.821Z,2.60
2022-10-04T22:57:03.680Z,3.10
2022-10-04T22:59:53.048Z,3.20
2022-10-04T23:02:40.757Z,2.70
2022-10-04T23:05:28.867Z,2.60
2022-10-04T23:08:18.147Z,2.50
2022-10-04T23:11:06.145Z,3.30
2022-10-04T23:13:57.233Z,2.70
2022-10-04T23:16:46.257Z,2.70
2022-10-04T23:19:34.429Z,2.30
2022-10-04T23:22:27.907Z,2.60
2022-10-04T23:25:19.979Z,2.50
2022-10-04T23:28:14.570Z,2.50
2022-10-04T23:31:20.924Z,2.70
2022-10-04T23:34:45.501Z,2.60
2022-10-04T23:37:33.195Z,2.90
2022-10-04T23:40:24.621Z,2.60
2022-10-04T23:43:25.281Z,2.80
2022-10-04T23:46:24.037Z,2.80
2022-10-04T23:49:20.469Z,3.00
2022-10-04T23:52:25.231Z,2.50
2022-10-04T23:55:27.180Z,3.10
2022-10-04T23:58:26.123Z,3.50
